Time;durP1;ratioP1;P1;durP2;ratioP2;P2;SDS_P1;SDS_P2;PMS_P1;PMS_P2;Temp;Humidity;BMP_temperature;BMP_pressure;BME280_temperature;BME280_humidity;BME280_pressure;Samples;Min_cycle;Max_cycle;Signal;HPM_P1;HPM_P2
2022/08/07 00:00:10;;;;;;;68.90;9.80;;;15.10;65.70;;;;;;5036253;28;20472;-82
2022/08/07 00:02:36;;;;;;;67.37;8.63;;;15.10;65.40;;;;;;5035419;28;20539;-82
2022/08/07 00:05:02;;;;;;;69.10;8.73;;;15.10;63.10;;;;;;5036141;28;20411;-83
2022/08/07 00:07:28;;;;;;;67.23;8.53;;;15.00;61.90;;;;;;5036069;28;20197;-82
2022/08/07 00:09:53;;;;;;;67.37;8.07;;;15.00;65.60;;;;;;5034552;28;20423;-82
2022/08/07 00:12:19;;;;;;;68.00;8.70;;;14.80;69.10;;;;;;5036328;28;20170;-83
2022/08/07 00:14:48;;;;;;;69.77;8.67;;;14.80;71.70;;;;;;5036122;28;20164;-83
2022/08/07 00:17:14;;;;;;;66.40;7.83;;;14.70;73.50;;;;;;5036069;28;20560;-82
2022/08/07 00:19:40;;;;;;;70.10;9.53;;;14.70;73.00;;;;;;5036270;28;20413;-82
2022/08/07 00:22:05;;;;;;;68.10;10.00;;;14.70;76.10;;;;;;5035532;28;20431;-82
2022/08/07 00:24:31;;;;;;;66.67;9.53;;;14.50;82.70;;;;;;5036501;28;20207;-82
2022/08/07 00:26:57;;;;;;;67.10;8.80;;;14.50;85.00;;;;;;5035836;28;20278;-82
2022/08/07 00:29:25;;;;;;;69.10;9.07;;;14.50;82.40;;;;;;5035959;28;20160;-82
2022/08/07 00:31:53;;;;;;;70.27;8.13;;;14.60;81.60;;;;;;5034353;28;20172;-82
2022/08/07 00:34:19;;;;;;;68.33;8.20;;;14.50;84.10;;;;;;5034953;28;20478;-82
2022/08/07 00:36:44;;;;;;;65.90;6.30;;;14.50;86.20;;;;;;5034890;28;20987;-82
2022/08/07 00:39:12;;;;;;;66.50;8.50;;;14.50;88.70;;;;;;5036878;28;20434;-82
2022/08/07 00:41:38;;;;;;;69.83;6.97;;;14.50;86.80;;;;;;5037422;28;20222;-82
2022/08/07 00:44:04;;;;;;;68.70;6.20;;;14.40;90.50;;;;;;5039171;28;20408;-82
2022/08/07 00:46:30;;;;;;;66.93;5.93;;;14.30;92.80;;;;;;5036941;28;20202;-82
2022/08/07 00:49:00;;;;;;;66.27;6.67;;;14.20;93.30;;;;;;5038572;28;20435;-82
2022/08/07 00:51:27;;;;;;;65.77;7.07;;;14.20;94.80;;;;;;5037639;28;20437;-82
2022/08/07 00:53:53;;;;;;;69.37;7.57;;;14.10;95.00;;;;;;5038433;28;20809;-82
2022/08/07 00:56:19;;;;;;;66.20;6.90;;;14.10;96.80;;;;;;5038481;28;20428;-82
2022/08/07 00:58:45;;;;;;;66.60;7.10;;;14.10;96.80;;;;;;5038511;28;20239;-82
2022/08/07 01:01:10;;;;;;;65.83;6.97;;;14.10;97.60;;;;;;5038483;28;20166;-82
2022/08/07 01:03:36;;;;;;;66.70;8.43;;;14.10;96.90;;;;;;5039495;28;20891;-82
2022/08/07 01:06:02;;;;;;;65.70;7.97;;;14.00;98.50;;;;;;5038328;28;20444;-82
2022/08/07 01:08:28;;;;;;;66.70;9.53;;;14.00;99.50;;;;;;5038422;28;20167;-82
2022/08/07 01:10:54;;;;;;;70.67;12.03;;;14.00;99.20;;;;;;5037945;28;20408;-82
2022/08/07 01:13:20;;;;;;;69.57;17.03;;;13.90;99.90;;;;;;5038236;28;20186;-82
2022/08/07 01:15:48;;;;;;;70.07;19.27;;;13.90;99.90;;;;;;5037951;28;20938;-82
2022/08/07 01:18:14;;;;;;;71.27;19.07;;;13.80;99.90;;;;;;5037891;28;20405;-82
2022/08/07 01:20:44;;;;;;;70.37;19.03;;;13.80;99.90;;;;;;5038546;28;20405;-82
2022/08/07 01:23:11;;;;;;;70.40;20.30;;;13.80;99.90;;;;;;5037741;28;20195;-82
2022/08/07 01:25:39;;;;;;;68.97;18.90;;;13.80;99.90;;;;;;5038288;28;20441;-82
2022/08/07 01:28:05;;;;;;;72.50;18.13;;;13.80;99.90;;;;;;5037782;28;20842;-82
2022/08/07 01:30:31;;;;;;;71.87;22.47;;;13.70;99.90;;;;;;5038061;28;20409;-83
2022/08/07 01:32:58;;;;;;;71.83;21.70;;;13.70;99.90;;;;;;5039089;28;20815;-83
2022/08/07 01:35:24;;;;;;;72.83;19.50;;;13.70;99.90;;;;;;5037656;28;20401;-82
2022/08/07 01:37:50;;;;;;;71.23;18.80;;;13.80;99.90;;;;;;5037001;28;20455;-82
2022/08/07 01:40:19;;;;;;;69.73;15.90;;;13.70;99.90;;;;;;5037702;28;20490;-82
2022/08/07 01:42:46;;;;;;;68.43;10.90;;;13.60;99.90;;;;;;5037872;28;20495;-82
2022/08/07 01:45:11;;;;;;;70.20;14.63;;;13.50;99.90;;;;;;5036775;28;20424;-82
2022/08/07 01:47:37;;;;;;;69.07;14.00;;;13.60;99.90;;;;;;5038880;28;20452;-82
2022/08/07 01:50:05;;;;;;;70.93;14.13;;;13.50;99.90;;;;;;5037082;28;20526;-82
2022/08/07 01:52:33;;;;;;;69.20;13.53;;;13.50;99.90;;;;;;5036280;28;20418;-83
2022/08/07 01:55:01;;;;;;;67.60;13.70;;;13.40;99.90;;;;;;5036940;28;20928;-82
2022/08/07 01:57:31;;;;;;;69.33;14.37;;;13.50;99.90;;;;;;5039328;28;20432;-82
2022/08/07 02:00:04;;;;;;;67.17;11.67;;;13.50;99.90;;;;;;5037438;28;20399;-82
2022/08/07 02:02:36;;;;;;;67.70;11.20;;;13.50;99.90;;;;;;5037365;28;20401;-82
2022/08/07 02:05:19;;;;;;;66.83;11.17;;;13.50;99.90;;;;;;5038086;28;20403;-82
2022/08/07 02:07:49;;;;;;;70.30;11.60;;;13.50;99.90;;;;;;5039239;28;20439;-82
2022/08/07 02:10:17;;;;;;;70.77;13.40;;;13.40;99.90;;;;;;5038288;28;20926;-82
2022/08/07 02:12:45;;;;;;;68.10;12.00;;;13.40;99.90;;;;;;5037024;28;20412;-82
2022/08/07 02:15:12;;;;;;;69.57;12.40;;;13.30;99.90;;;;;;5037834;28;20484;-82
2022/08/07 02:17:39;;;;;;;67.50;11.50;;;13.30;99.90;;;;;;5038015;28;20440;-83
2022/08/07 02:20:07;;;;;;;67.33;10.40;;;13.30;99.90;;;;;;5036797;28;20417;-82
2022/08/07 02:22:35;;;;;;;69.93;13.77;;;13.30;99.90;;;;;;5038102;28;20427;-82
2022/08/07 02:25:03;;;;;;;67.80;14.50;;;13.20;99.90;;;;;;5037838;28;20417;-82
2022/08/07 02:27:30;;;;;;;68.07;13.47;;;13.10;99.90;;;;;;5036316;28;20462;-82
2022/08/07 02:29:57;;;;;;;69.70;13.70;;;13.10;99.90;;;;;;5037355;28;20412;-82
2022/08/07 02:32:25;;;;;;;68.97;15.33;;;13.20;99.90;;;;;;5036600;28;20408;-82
2022/08/07 02:34:53;;;;;;;71.20;13.70;;;13.10;99.90;;;;;;5035192;28;20412;-82
2022/08/07 02:37:20;;;;;;;67.27;15.00;;;13.00;99.90;;;;;;5035808;28;20440;-82
2022/08/07 02:39:47;;;;;;;70.23;14.20;;;13.00;99.90;;;;;;5037674;28;20457;-82
2022/08/07 02:42:14;;;;;;;69.77;16.23;;;13.00;99.90;;;;;;5036577;28;20419;-82
2022/08/07 02:44:42;;;;;;;69.20;16.30;;;12.90;99.90;;;;;;5037855;28;20462;-82
2022/08/07 02:47:09;;;;;;;69.53;20.30;;;12.90;99.90;;;;;;5036192;28;20491;-82
2022/08/07 02:49:35;;;;;;;70.23;22.33;;;12.80;99.90;;;;;;5036595;28;20479;-82
2022/08/07 02:52:03;;;;;;;70.40;25.00;;;12.80;99.90;;;;;;5037616;28;20436;-82
2022/08/07 02:54:31;;;;;;;70.30;22.40;;;12.70;99.90;;;;;;5037475;28;20244;-82
2022/08/07 02:57:01;;;;;;;72.70;30.27;;;12.70;99.90;;;;;;5037098;28;20431;-82
2022/08/07 02:59:28;;;;;;;74.03;29.83;;;12.70;99.90;;;;;;5035872;28;20436;-82
2022/08/07 03:01:55;;;;;;;74.17;28.40;;;12.70;99.90;;;;;;5036545;28;20441;-83
2022/08/07 03:04:23;;;;;;;77.77;33.23;;;12.70;99.90;;;;;;5037421;28;20487;-82
2022/08/07 03:06:50;;;;;;;72.90;29.17;;;12.70;99.90;;;;;;5036072;28;20447;-82
2022/08/07 03:09:18;;;;;;;75.83;37.40;;;12.70;99.90;;;;;;5034488;28;20906;-82
2022/08/07 03:11:44;;;;;;;74.83;33.53;;;12.60;99.90;;;;;;5036480;28;20405;-82
2022/08/07 03:14:11;;;;;;;77.13;36.57;;;12.60;99.90;;;;;;5037454;28;20476;-82
2022/08/07 03:16:37;;;;;;;75.00;32.17;;;12.50;99.90;;;;;;5035389;28;20908;-82
2022/08/07 03:19:03;;;;;;;78.50;34.50;;;12.50;99.90;;;;;;5037071;28;20440;-82
2022/08/07 03:21:29;;;;;;;75.33;36.73;;;12.50;99.90;;;;;;5035586;28;20446;-82
2022/08/07 03:23:58;;;;;;;74.77;36.70;;;12.50;99.90;;;;;;5036484;28;20427;-82
2022/08/07 03:26:27;;;;;;;73.60;31.57;;;12.40;99.90;;;;;;5035337;28;21000;-82
2022/08/07 03:28:56;;;;;;;78.10;45.93;;;12.40;99.90;;;;;;5035497;28;20914;-82
2022/08/07 03:31:22;;;;;;;74.80;36.13;;;12.50;99.90;;;;;;5035345;28;20483;-82
2022/08/07 03:33:51;;;;;;;73.90;31.37;;;12.40;99.90;;;;;;5036824;28;20821;-82
2022/08/07 03:36:20;;;;;;;76.00;39.43;;;12.50;99.90;;;;;;5036256;28;20438;-83
2022/08/07 03:38:47;;;;;;;73.70;31.37;;;12.50;99.90;;;;;;5034124;28;20513;-82
2022/08/07 03:41:14;;;;;;;75.33;25.87;;;12.60;99.90;;;;;;5034102;28;20783;-82
2022/08/07 03:43:41;;;;;;;72.30;29.30;;;12.60;99.90;;;;;;5035262;28;20447;-82
2022/08/07 03:46:07;;;;;;;74.90;37.60;;;12.50;99.90;;;;;;5036909;28;20981;-82
2022/08/07 03:48:35;;;;;;;72.50;29.90;;;12.60;99.90;;;;;;5036461;28;20404;-82
2022/08/07 03:51:04;;;;;;;72.77;27.63;;;12.50;99.90;;;;;;5035133;28;20409;-82
2022/08/07 03:53:30;;;;;;;68.87;19.93;;;12.40;99.90;;;;;;5036448;28;20400;-82
2022/08/07 03:55:58;;;;;;;68.40;14.70;;;12.40;99.90;;;;;;5035622;28;20420;-82
2022/08/07 03:58:25;;;;;;;67.20;14.43;;;12.30;99.90;;;;;;5037012;28;20426;-82
2022/08/07 04:00:54;;;;;;;68.87;15.70;;;12.30;99.90;;;;;;5037296;28;20399;-82
2022/08/07 04:03:20;;;;;;;68.00;15.50;;;12.30;99.90;;;;;;5035173;28;20407;-82
2022/08/07 04:05:49;;;;;;;67.90;14.67;;;12.30;99.90;;;;;;5035715;28;20943;-82
2022/08/07 04:08:15;;;;;;;66.10;11.80;;;12.20;99.90;;;;;;5037071;28;20173;-82
2022/08/07 04:10:42;;;;;;;67.53;13.47;;;12.30;99.90;;;;;;5037112;28;20400;-82
2022/08/07 04:13:11;;;;;;;69.57;17.80;;;12.20;99.90;;;;;;5038980;28;20482;-82
2022/08/07 04:15:37;;;;;;;67.67;15.63;;;12.20;99.90;;;;;;5039023;28;20458;-82
2022/08/07 04:18:03;;;;;;;66.70;13.20;;;12.10;99.90;;;;;;5040392;28;20404;-82
2022/08/07 04:20:29;;;;;;;67.50;15.57;;;12.10;99.90;;;;;;5040964;28;20247;-82
2022/08/07 04:22:55;;;;;;;66.30;10.50;;;12.10;99.90;;;;;;5040723;28;20462;-82
2022/08/07 04:25:22;;;;;;;66.40;12.40;;;12.10;99.90;;;;;;5040627;28;20173;-82
2022/08/07 04:27:48;;;;;;;67.60;11.00;;;12.10;99.90;;;;;;5039033;28;20526;-82
2022/08/07 04:30:14;;;;;;;65.30;9.70;;;12.10;99.90;;;;;;5039354;28;20942;-82
2022/08/07 04:32:40;;;;;;;67.00;10.53;;;12.10;99.90;;;;;;5038818;28;20169;-82
2022/08/07 04:35:08;;;;;;;66.20;9.77;;;12.10;99.90;;;;;;5038833;28;20400;-82
2022/08/07 04:37:37;;;;;;;65.30;9.17;;;12.00;99.90;;;;;;5037404;28;20438;-82
2022/08/07 04:40:03;;;;;;;66.97;12.07;;;12.00;99.90;;;;;;5037146;28;20922;-82
2022/08/07 04:42:31;;;;;;;67.90;11.27;;;12.10;99.90;;;;;;5037524;28;20412;-82
2022/08/07 04:45:01;;;;;;;66.77;10.10;;;12.10;99.90;;;;;;5039259;28;20419;-82
2022/08/07 04:47:37;;;;;;;66.60;12.53;;;12.10;99.90;;;;;;5038713;28;20447;-82
2022/08/07 04:50:18;;;;;;;65.63;8.53;;;12.20;99.90;;;;;;5037353;28;20400;-82
2022/08/07 04:52:49;;;;;;;67.13;8.77;;;12.40;99.90;;;;;;5037303;28;20403;-82
2022/08/07 04:55:29;;;;;;;65.17;9.03;;;12.40;99.90;;;;;;5039998;28;20392;-82
2022/08/07 04:58:13;;;;;;;65.97;9.33;;;12.60;99.90;;;;;;5038727;28;20424;-82
2022/08/07 05:00:57;;;;;;;68.20;10.00;;;12.70;99.90;;;;;;5038362;28;20380;-82
2022/08/07 05:03:52;;;;;;;66.90;8.80;;;12.80;99.90;;;;;;5038611;28;20441;-82
2022/08/07 05:06:45;;;;;;;65.80;7.53;;;13.00;99.90;;;;;;5037474;28;20447;-82
2022/08/07 05:09:36;;;;;;;66.07;9.57;;;13.00;99.90;;;;;;5032774;28;20415;-82
2022/08/07 05:12:05;;;;;;;66.50;8.43;;;13.10;99.90;;;;;;5038170;28;20384;-82
2022/08/07 05:14:36;;;;;;;65.57;7.80;;;13.10;99.90;;;;;;5039263;28;20574;-83
2022/08/07 05:17:04;;;;;;;66.77;7.77;;;13.10;99.90;;;;;;5038384;28;20431;-82
2022/08/07 05:19:36;;;;;;;67.83;9.30;;;13.10;99.90;;;;;;5038360;28;20412;-82
2022/08/07 05:22:06;;;;;;;65.43;7.20;;;13.10;99.90;;;;;;5038248;28;20435;-83
2022/08/07 05:24:37;;;;;;;68.77;10.57;;;13.20;99.90;;;;;;5037201;28;20393;-82
2022/08/07 05:27:07;;;;;;;65.47;9.00;;;13.20;99.90;;;;;;5038269;28;20849;-82
2022/08/07 05:29:38;;;;;;;68.93;11.00;;;13.20;99.90;;;;;;5040194;28;20405;-82
2022/08/07 05:32:07;;;;;;;67.90;12.77;;;13.20;99.90;;;;;;5038317;28;20412;-82
2022/08/07 05:34:35;;;;;;;70.43;11.50;;;13.20;99.90;;;;;;5037756;28;20400;-82
2022/08/07 05:37:02;;;;;;;71.57;13.70;;;13.30;99.90;;;;;;5037547;28;20429;-82
2022/08/07 05:39:29;;;;;;;67.70;12.90;;;13.40;99.90;;;;;;5038266;28;20408;-82
2022/08/07 05:41:55;;;;;;;68.20;12.63;;;13.50;99.90;;;;;;5037989;28;20439;-82
2022/08/07 05:44:21;;;;;;;70.50;14.03;;;13.60;99.90;;;;;;5037650;28;20499;-83
2022/08/07 05:46:49;;;;;;;72.57;14.80;;;13.70;99.90;;;;;;5037722;28;20531;-82
2022/08/07 05:49:16;;;;;;;69.47;12.20;;;13.70;99.90;;;;;;5037645;28;20503;-82
2022/08/07 05:51:43;;;;;;;77.80;13.53;;;13.80;99.90;;;;;;5037769;28;20515;-82
2022/08/07 05:54:10;;;;;;;66.37;11.37;;;13.90;99.90;;;;;;5037717;28;20427;-83
2022/08/07 05:56:39;;;;;;;67.00;8.80;;;14.00;99.90;;;;;;5037664;28;20482;-82
2022/08/07 05:59:08;;;;;;;65.50;8.70;;;14.10;99.90;;;;;;5035842;28;20423;-82
2022/08/07 06:01:38;;;;;;;69.23;8.23;;;14.30;99.90;;;;;;5037594;28;20409;-82
2022/08/07 06:04:05;;;;;;;67.97;7.90;;;14.30;99.90;;;;;;5036207;28;20417;-82
2022/08/07 06:06:32;;;;;;;68.20;7.83;;;14.50;99.90;;;;;;5037360;28;20481;-82
2022/08/07 06:09:00;;;;;;;68.47;9.10;;;14.50;99.90;;;;;;5037766;28;20408;-82
2022/08/07 06:11:26;;;;;;;69.10;8.80;;;14.50;99.90;;;;;;5036895;28;20535;-82
2022/08/07 06:13:53;;;;;;;67.27;9.80;;;14.60;99.90;;;;;;5037149;28;20435;-82
2022/08/07 06:16:22;;;;;;;71.83;9.20;;;14.70;99.90;;;;;;5036979;28;20795;-82
2022/08/07 06:18:48;;;;;;;67.67;11.17;;;14.90;99.90;;;;;;5036630;28;20532;-82
2022/08/07 06:21:16;;;;;;;70.47;12.10;;;14.90;99.90;;;;;;5036922;28;20437;-82
2022/08/07 06:23:42;;;;;;;69.00;12.93;;;15.00;99.90;;;;;;5037140;28;20516;-82
2022/08/07 06:26:12;;;;;;;69.93;11.40;;;15.00;99.90;;;;;;5036567;28;20460;-82
2022/08/07 06:28:48;;;;;;;69.60;10.77;;;15.10;99.90;;;;;;5036618;28;20433;-82
2022/08/07 06:31:14;;;;;;;67.53;8.33;;;15.10;99.90;;;;;;5036843;28;20436;-82
2022/08/07 06:33:40;;;;;;;71.53;8.40;;;15.20;99.90;;;;;;5036996;28;20769;-82
2022/08/07 06:36:06;;;;;;;67.20;7.80;;;15.20;99.90;;;;;;5035806;28;20204;-82
2022/08/07 06:38:31;;;;;;;68.20;9.30;;;15.30;99.90;;;;;;5037167;28;20417;-82
2022/08/07 06:41:00;;;;;;;67.90;8.17;;;15.40;99.90;;;;;;5035112;28;21052;-82
2022/08/07 06:43:34;;;;;;;67.57;8.60;;;15.40;99.90;;;;;;5036745;28;20199;-82
2022/08/07 06:46:01;;;;;;;66.97;8.20;;;15.50;99.90;;;;;;5036372;28;20454;-82
2022/08/07 06:48:27;;;;;;;66.97;9.70;;;15.50;91.00;;;;;;5035134;28;20888;-82
2022/08/07 06:50:54;;;;;;;68.10;10.63;;;15.60;92.90;;;;;;5036392;28;20456;-82
2022/08/07 06:53:22;;;;;;;69.80;13.40;;;15.70;93.30;;;;;;5039525;28;20171;-82
2022/08/07 06:55:49;;;;;;;68.80;13.13;;;15.80;84.50;;;;;;5037232;28;20422;-82
2022/08/07 06:58:16;;;;;;;68.97;12.93;;;15.90;76.60;;;;;;5036556;28;20460;-82
2022/08/07 07:00:44;;;;;;;74.37;12.83;;;15.90;81.90;;;;;;5038411;28;20409;-82
2022/08/07 07:03:11;;;;;;;70.03;14.30;;;16.00;77.40;;;;;;5036378;28;20424;-82
2022/08/07 07:05:38;;;;;;;69.77;15.53;;;16.10;84.20;;;;;;5038137;28;20437;-82
2022/08/07 07:08:05;;;;;;;69.90;13.37;;;16.20;84.20;;;;;;5036712;28;20503;-82
2022/08/07 07:10:33;;;;;;;67.87;8.70;;;16.20;73.10;;;;;;5035801;28;20820;-82
2022/08/07 07:13:19;;;;;;;67.10;6.60;;;16.30;68.70;;;;;;5034230;28;20425;-82
2022/08/07 07:15:51;;;;;;;68.20;7.70;;;16.40;57.40;;;;;;5035761;28;20422;-82
2022/08/07 07:18:29;;;;;;;67.30;6.63;;;16.50;58.30;;;;;;5034981;28;20410;-82
2022/08/07 07:21:07;;;;;;;68.00;5.40;;;16.60;59.90;;;;;;5035371;28;20929;-82
2022/08/07 07:23:33;;;;;;;67.10;4.77;;;16.60;50.90;;;;;;5038360;28;20494;-82
2022/08/07 07:26:04;;;;;;;66.20;3.90;;;16.60;47.70;;;;;;5036245;28;20507;-82
2022/08/07 07:28:48;;;;;;;66.70;5.20;;;16.60;38.90;;;;;;5035981;28;20492;-82
2022/08/07 07:31:32;;;;;;;66.70;4.83;;;16.70;43.00;;;;;;5036064;28;20394;-82
2022/08/07 07:34:05;;;;;;;67.10;4.10;;;16.80;41.30;;;;;;5036035;28;20416;-82
2022/08/07 07:36:32;;;;;;;68.10;4.33;;;16.90;38.90;;;;;;5034189;28;20442;-82
2022/08/07 07:38:59;;;;;;;66.10;4.00;;;16.90;35.40;;;;;;5035323;28;20415;-82
2022/08/07 07:41:28;;;;;;;65.87;3.50;;;16.90;30.60;;;;;;5035334;28;20432;-82
2022/08/07 07:43:55;;;;;;;65.83;3.57;;;17.00;32.40;;;;;;5035461;28;20404;-82
2022/08/07 07:46:22;;;;;;;65.77;3.40;;;17.10;15.90;;;;;;5035400;28;20455;-82
2022/08/07 07:48:50;;;;;;;65.90;3.60;;;17.10;14.50;;;;;;5033357;28;20851;-82
2022/08/07 07:51:17;;;;;;;65.60;3.10;;;17.20;4.70;;;;;;5036687;28;20404;-82
2022/08/07 07:53:45;;;;;;;65.83;3.73;;;17.30;1.00;;;;;;5035681;28;20419;-82
2022/08/07 07:56:13;;;;;;;65.77;3.37;;;17.30;1.00;;;;;;5036709;28;20420;-82
2022/08/07 07:58:41;;;;;;;64.70;2.60;;;17.30;1.00;;;;;;5036523;28;20455;-82
2022/08/07 08:01:11;;;;;;;66.03;3.93;;;17.40;1.00;;;;;;5035582;28;20416;-82
2022/08/07 08:03:39;;;;;;;66.00;3.20;;;17.50;1.00;;;;;;5035002;28;20396;-82
2022/08/07 08:06:06;;;;;;;65.70;3.23;;;17.50;1.00;;;;;;5035402;28;20432;-82
2022/08/07 08:08:35;;;;;;;66.60;3.63;;;17.60;1.00;;;;;;5035184;28;20911;-82
2022/08/07 08:11:01;;;;;;;66.83;4.10;;;17.60;1.00;;;;;;5035099;28;20439;-82
2022/08/07 08:13:28;;;;;;;65.97;3.80;;;17.60;1.00;;;;;;5034866;28;20432;-82
2022/08/07 08:15:57;;;;;;;65.47;4.00;;;17.80;1.00;;;;;;5034762;28;20526;-82
2022/08/07 08:18:24;;;;;;;66.80;4.23;;;17.90;1.00;;;;;;5034890;28;20926;-82
2022/08/07 08:20:50;;;;;;;67.43;4.37;;;18.10;1.00;;;;;;5034771;28;20881;-82
2022/08/07 08:28:51;;;;;;;66.60;3.20;;;18.30;1.00;;;;;;5035283;28;20391;-82
2022/08/07 08:31:28;;;;;;;65.60;2.93;;;18.40;1.00;;;;;;5034490;28;20404;-82
2022/08/07 08:33:55;;;;;;;66.27;3.20;;;18.40;1.00;;;;;;5035511;28;20391;-82
2022/08/07 08:36:25;;;;;;;69.30;3.23;;;18.50;1.00;;;;;;5033887;28;20432;-82
2022/08/07 08:38:53;;;;;;;69.90;4.20;;;18.50;1.00;;;;;;5034242;28;20413;-82
2022/08/07 08:41:24;;;;;;;65.73;3.07;;;18.60;1.00;;;;;;5033996;28;20454;-82
2022/08/07 08:44:01;;;;;;;65.73;3.17;;;18.60;1.00;;;;;;5034909;28;20747;-82
2022/08/07 08:46:49;;;;;;;66.10;2.80;;;18.60;1.00;;;;;;5034922;28;20451;-82
2022/08/07 08:49:36;;;;;;;65.23;2.60;;;18.70;1.00;;;;;;5034160;28;20412;-82
2022/08/07 08:52:28;;;;;;;69.73;3.27;;;18.70;1.00;;;;;;5035161;28;20392;-82
2022/08/07 08:55:01;;;;;;;66.57;2.87;;;19.00;1.00;;;;;;5034152;28;20396;-81
2022/08/07 08:57:48;;;;;;;65.17;2.90;;;19.10;1.00;;;;;;5033082;28;20428;-82
2022/08/07 09:00:15;;;;;;;67.10;2.93;;;19.10;1.00;;;;;;5037738;28;20395;-82
2022/08/07 09:03:01;;;;;;;68.10;2.50;;;19.20;1.00;;;;;;5039183;28;20400;-82
2022/08/07 09:06:09;;;;;;;65.60;2.73;;;19.40;1.00;;;;;;5039231;28;20432;-82
2022/08/07 09:09:09;;;;;;;66.97;2.53;;;19.50;1.00;;;;;;5027271;28;20423;-82
2022/08/07 09:11:49;;;;;;;65.43;2.70;;;19.50;1.00;;;;;;5037688;28;20404;-82
2022/08/07 09:14:30;;;;;;;65.57;2.50;;;19.60;1.00;;;;;;5037378;28;20404;-82
2022/08/07 09:17:06;;;;;;;65.13;2.30;;;19.60;1.00;;;;;;5039034;28;20724;-82
2022/08/07 09:19:56;;;;;;;65.50;2.60;;;19.70;1.00;;;;;;5036947;28;20388;-82
2022/08/07 09:22:37;;;;;;;65.60;2.63;;;19.80;1.00;;;;;;5051643;22;20495;-86
2022/08/07 09:25:31;;;;;;;68.83;2.70;;;20.00;1.00;;;;;;5036184;28;20392;-85
2022/08/07 09:28:05;;;;;;;65.30;2.40;;;20.20;1.00;;;;;;5012041;28;20477;-85
2022/08/07 09:31:00;;;;;;;69.30;2.97;;;20.40;1.00;;;;;;5014972;28;20508;-86
2022/08/07 09:33:39;;;;;;;66.17;2.53;;;20.50;1.00;;;;;;4997424;28;20414;-86
2022/08/07 09:36:19;;;;;;;66.50;2.60;;;20.70;1.00;;;;;;5015053;28;20436;-86
2022/08/07 09:38:54;;;;;;;66.67;2.87;;;20.80;1.00;;;;;;5031544;28;20409;-86
2022/08/07 09:41:37;;;;;;;65.97;2.63;;;20.90;1.00;;;;;;5031518;28;20778;-86
2022/08/07 09:44:26;;;;;;;65.90;2.57;;;21.10;1.00;;;;;;5014885;28;20810;-86
2022/08/07 09:47:26;;;;;;;65.60;2.10;;;21.20;1.00;;;;;;5016125;28;20451;-86
2022/08/07 09:50:22;;;;;;;65.13;2.40;;;21.30;1.00;;;;;;5014772;28;20413;-86
2022/08/07 09:53:00;;;;;;;65.67;2.47;;;21.50;1.00;;;;;;5016488;28;20450;-86
2022/08/07 09:55:46;;;;;;;66.17;2.43;;;21.60;1.00;;;;;;5014524;28;20923;-85
2022/08/07 09:58:45;;;;;;;65.73;2.10;;;21.80;1.00;;;;;;5015875;28;20747;-85
2022/08/07 10:01:24;;;;;;;65.53;2.73;;;22.00;1.00;;;;;;5030990;28;20412;-86
2022/08/07 10:04:05;;;;;;;66.50;2.70;;;22.00;1.00;;;;;;5016010;28;20397;-86
2022/08/07 10:07:01;;;;;;;65.13;2.10;;;22.20;1.00;;;;;;5030926;28;20487;-86
2022/08/07 10:09:42;;;;;;;65.60;2.60;;;22.40;1.00;;;;;;5015597;28;20448;-86
2022/08/07 10:12:13;;;;;;;65.70;2.90;;;22.60;1.00;;;;;;5030503;28;20462;-86
2022/08/07 10:15:30;;;;;;;69.00;2.97;;;22.80;1.00;;;;;;5016027;28;20737;-86
2022/08/07 10:18:24;;;;;;;66.60;2.83;;;23.00;1.00;;;;;;5003355;28;20455;-86
2022/08/07 10:20:59;;;;;;;65.37;2.23;;;23.30;1.00;;;;;;4997269;28;20401;-86
2022/08/07 10:23:33;;;;;;;65.90;2.60;;;23.40;1.00;;;;;;5015330;28;20873;-86
2022/08/07 10:26:16;;;;;;;65.77;2.27;;;23.60;1.00;;;;;;5015756;28;20827;-86
2022/08/07 10:29:05;;;;;;;65.83;2.57;;;23.90;1.00;;;;;;5030584;28;20413;-86
2022/08/07 10:31:45;;;;;;;65.13;2.03;;;23.80;1.00;;;;;;5010902;28;20986;-86
2022/08/07 10:34:11;;;;;;;65.87;2.00;;;24.00;1.00;;;;;;5015137;28;20468;-86
2022/08/07 10:36:55;;;;;;;65.87;1.90;;;24.20;1.00;;;;;;5014985;28;21031;-86
2022/08/07 10:39:43;;;;;;;65.87;2.00;;;24.60;1.00;;;;;;5030223;28;20197;-86
2022/08/07 10:42:50;;;;;;;67.57;2.07;;;24.90;1.00;;;;;;5030511;28;20454;-86
2022/08/07 10:45:25;;;;;;;65.30;2.00;;;25.00;1.00;;;;;;5015326;28;20392;-86
2022/08/07 10:48:28;;;;;;;66.20;1.87;;;25.30;1.00;;;;;;5030873;28;20951;-86
2022/08/07 10:51:15;;;;;;;65.37;1.90;;;25.50;1.00;;;;;;5029991;28;20414;-86
2022/08/07 10:53:56;;;;;;;65.60;2.60;;;25.60;1.00;;;;;;5015081;28;20392;-86
2022/08/07 10:57:04;;;;;;;66.30;2.10;;;25.90;1.00;;;;;;5013681;28;20463;-85
2022/08/07 10:59:50;;;;;;;65.47;2.07;;;25.70;1.00;;;;;;5003916;28;20447;-86
2022/08/07 11:02:38;;;;;;;66.70;2.00;;;25.60;1.00;;;;;;5015026;28;20400;-86
2022/08/07 11:05:28;;;;;;;65.73;2.00;;;25.80;1.00;;;;;;5013392;28;20788;-86
2022/08/07 11:08:12;;;;;;;66.50;2.23;;;25.60;1.00;;;;;;5029720;28;20945;-86
2022/08/07 11:10:54;;;;;;;65.27;1.77;;;25.90;1.00;;;;;;5029644;28;20506;-86
2022/08/07 11:13:41;;;;;;;65.60;1.87;;;25.90;1.00;;;;;;5013014;28;20436;-86
2022/08/07 11:16:42;;;;;;;65.87;1.93;;;25.70;1.00;;;;;;5014587;28;20470;-86
2022/08/07 11:19:19;;;;;;;67.37;1.97;;;25.60;1.00;;;;;;4995993;28;20409;-86
2022/08/07 11:21:54;;;;;;;68.00;2.90;;;25.90;1.00;;;;;;5012250;28;20456;-86
2022/08/07 11:24:36;;;;;;;65.87;1.90;;;26.30;1.00;;;;;;5012906;28;20780;-86
2022/08/07 11:27:12;;;;;;;65.77;1.90;;;26.30;1.00;;;;;;5012890;28;20835;-86
2022/08/07 11:29:50;;;;;;;67.13;2.00;;;26.10;1.00;;;;;;5012769;28;20409;-86
2022/08/07 11:32:33;;;;;;;65.60;2.00;;;26.30;1.00;;;;;;5014033;28;20382;-86
2022/08/07 11:35:07;;;;;;;66.87;1.80;;;26.70;1.00;;;;;;5014653;28;20378;-86
2022/08/07 11:38:03;;;;;;;65.60;1.73;;;26.70;1.00;;;;;;5013451;28;20788;-86
2022/08/07 11:40:58;;;;;;;65.77;1.60;;;26.90;1.00;;;;;;5013840;28;20390;-86
2022/08/07 11:43:26;;;;;;;67.07;1.90;;;26.80;1.00;;;;;;5012791;28;20404;-86
2022/08/07 11:46:04;;;;;;;67.63;1.93;;;27.00;1.00;;;;;;5013238;28;20436;-86
2022/08/07 11:48:51;;;;;;;66.80;2.00;;;27.30;1.00;;;;;;5029331;28;20420;-86
2022/08/07 11:51:29;;;;;;;65.40;1.70;;;27.50;1.00;;;;;;5014089;28;20472;-86
2022/08/07 11:54:14;;;;;;;66.57;1.90;;;27.30;1.00;;;;;;5029255;28;20451;-86
2022/08/07 11:57:11;;;;;;;66.17;2.10;;;27.40;1.00;;;;;;5029386;28;20424;-86
2022/08/07 11:59:57;;;;;;;66.00;1.80;;;27.10;1.00;;;;;;5012391;28;20409;-86
2022/08/07 12:02:41;;;;;;;66.00;1.83;;;27.10;1.00;;;;;;5028858;28;20409;-86
2022/08/07 12:05:22;;;;;;;65.70;2.10;;;27.40;1.00;;;;;;5028762;28;20401;-86
2022/08/07 12:07:55;;;;;;;68.20;2.93;;;27.90;1.00;;;;;;5013583;28;20523;-86
2022/08/07 12:10:25;;;;;;;65.97;2.20;;;28.10;1.00;;;;;;5013374;28;20421;-86
2022/08/07 12:12:58;;;;;;;67.07;3.20;;;28.30;1.00;;;;;;5012284;28;20890;-86
2022/08/07 12:15:33;;;;;;;66.10;3.43;;;28.50;1.00;;;;;;5012347;28;20428;-86
2022/08/07 12:18:25;;;;;;;67.57;4.03;;;28.70;1.00;;;;;;5012784;28;20444;-86
2022/08/07 12:21:17;;;;;;;66.90;4.10;;;28.50;1.00;;;;;;5012481;28;20417;-86
2022/08/07 12:24:03;;;;;;;67.43;3.47;;;28.20;1.00;;;;;;5013589;28;20398;-86
2022/08/07 12:26:54;;;;;;;66.33;3.90;;;27.90;1.00;;;;;;5012224;28;20448;-86
2022/08/07 12:29:36;;;;;;;66.90;3.80;;;28.10;1.00;;;;;;5013146;28;20417;-86
2022/08/07 12:32:14;;;;;;;67.27;3.77;;;28.20;1.00;;;;;;5012296;28;20417;-86
2022/08/07 12:34:42;;;;;;;66.00;2.80;;;27.50;1.00;;;;;;5017378;28;20406;-86
2022/08/07 12:37:10;;;;;;;66.57;3.90;;;27.20;1.00;;;;;;5017365;28;20514;-86
2022/08/07 12:39:39;;;;;;;66.20;3.77;;;26.90;1.00;;;;;;5016436;28;20829;-86
2022/08/07 12:42:07;;;;;;;69.37;2.83;;;26.90;1.00;;;;;;5016307;28;20420;-86
2022/08/07 12:44:35;;;;;;;66.17;2.73;;;27.00;1.00;;;;;;5016313;28;20753;-86
2022/08/07 12:47:14;;;;;;;66.77;3.57;;;27.40;1.00;;;;;;5018138;28;20531;-86
2022/08/07 12:50:35;;;;;;;66.33;3.10;;;27.60;1.00;;;;;;5024857;28;20484;-86
2022/08/07 12:53:16;;;;;;;65.70;2.10;;;27.10;1.00;;;;;;4979968;28;20408;-86
2022/08/07 12:56:09;;;;;;;69.67;4.10;;;27.50;1.00;;;;;;5017530;28;20420;-86
2022/08/07 12:58:37;;;;;;;66.70;3.60;;;27.90;1.00;;;;;;5016648;28;20429;-86
2022/08/07 13:01:31;;;;;;;69.43;4.20;;;27.90;1.00;;;;;;5015892;28;20408;-86
2022/08/07 13:04:09;;;;;;;66.70;3.80;;;27.70;1.00;;;;;;5017247;28;20400;-86
2022/08/07 13:06:59;;;;;;;66.40;3.70;;;28.10;1.00;;;;;;5032000;28;20452;-86
2022/08/07 13:09:44;;;;;;;66.57;3.93;;;28.30;1.00;;;;;;5032716;28;20424;-85
2022/08/07 13:12:18;;;;;;;67.90;3.03;;;28.30;1.00;;;;;;5034279;28;20412;-85
2022/08/07 13:15:32;;;;;;;67.27;3.20;;;28.00;1.00;;;;;;5033999;28;20436;-86